Terminal Aerodrome Forecast
Issued by NWS

Current Version | Previous Version | Graphics & Text | Print | Product List | Glossary On
Versions: 1 2 3 4 5 6 7 8 9 10 11 12 13 14 15 16 17 18
000
FTUS41 KPBZ 262200 AAC
TAFHLG
TAF AMD
KHLG 262201Z 2622/2718 32011KT P6SM BKN019
     FM262300 33010KT P6SM BKN035
     FM271200 30005KT P6SM BKN040=

USA.gov is the U.S. government's official web portal to all federal, state and local government web resources and services.